Lanigan, Canada
Current Conditions -  °F | °C
As of 4:00 AM on Saturday 29 Nov 2014 (Local Time) from CYXE Reporting Station
Light Snow Light Snow  
Wind Chill: -22°   Ceiling: 5000
Heat Index: -6°   Visibility: 10mi
Dew Point: -11°   Wind: 9mph
Humidity: 77%   Direction: 350°N
Pressure: 29.69"   Gusts: NA
Location:  51.85°N, 105.03°W
Report Text: CYXE 291000Z 35008KT 10SM -SN DRSN SCT020 OVC050 M21/M24 A2969 RMK SC4SC4 SLP105
Loading
Personal Weather Stations






























Interactive Weather Map New forecast layout! Learn more

10-Day Weather Forecast

Advertisements
Track Severe Weather on mobile